Time,TemperatureF,DewpointF,PressureIn,WindDirection,WindDirectionDegrees,WindSpeedMPH,WindSpeedGustMPH,Humidity,HourlyPrecipIn,Conditions,Clouds,dailyrainin,SolarRadiationWatts/m^2,SoftwareType,DateUTC
2013-03-20 00:02:00,23.0,5.0,-100.00,NW,308,1.0,4.0,45,0.00,,,0.00,0.000000,,2013-03-20 06:02:00,
2013-03-20 00:12:00,23.0,5.0,-100.00,NW,308,1.0,4.0,45,0.00,,,0.00,0.000000,,2013-03-20 06:12:00,
2013-03-20 00:22:00,23.0,5.0,-100.00,NW,308,1.0,4.0,45,0.00,,,0.00,0.000000,,2013-03-20 06:22:00,
2013-03-20 00:32:00,23.0,5.0,-100.00,NW,308,1.0,4.0,45,0.00,,,0.00,0.000000,,2013-03-20 06:32:00,
2013-03-20 01:02:00,19.0,4.0,-100.00,East,81,1.0,5.0,52,0.00,,,0.00,0.000000,,2013-03-20 07:02:00,
2013-03-20 01:12:00,19.0,4.0,-100.00,East,81,1.0,5.0,52,0.00,,,0.00,0.000000,,2013-03-20 07:12:00,
2013-03-20 01:22:00,19.0,4.0,-100.00,East,81,1.0,5.0,52,0.00,,,0.00,0.000000,,2013-03-20 07:22:00,
2013-03-20 01:31:00,19.0,4.0,-100.00,East,81,1.0,5.0,52,0.00,,,0.00,0.000000,,2013-03-20 07:31:00,
2013-03-20 02:02:00,18.0,3.0,-100.00,SW,217,0.0,2.0,51,0.00,,,0.00,0.000000,,2013-03-20 08:02:00,
2013-03-20 02:12:00,18.0,3.0,-100.00,SW,217,0.0,2.0,51,0.00,,,0.00,0.000000,,2013-03-20 08:12:00,
2013-03-20 02:22:00,18.0,3.0,-100.00,SW,217,0.0,2.0,51,0.00,,,0.00,0.000000,,2013-03-20 08:22:00,
2013-03-20 02:32:00,18.0,3.0,-100.00,SW,217,0.0,2.0,51,0.00,,,0.00,0.000000,,2013-03-20 08:32:00,
2013-03-20 03:02:00,16.0,3.0,-100.00,North,351,0.0,2.0,56,0.00,,,0.00,0.000000,,2013-03-20 09:02:00,
2013-03-20 03:12:00,16.0,3.0,-100.00,North,351,0.0,2.0,56,0.00,,,0.00,0.000000,,2013-03-20 09:12:00,
2013-03-20 03:22:00,16.0,3.0,-100.00,North,351,0.0,2.0,56,0.00,,,0.00,0.000000,,2013-03-20 09:22:00,
2013-03-20 03:32:00,16.0,3.0,-100.00,North,351,0.0,2.0,56,0.00,,,0.00,0.000000,,2013-03-20 09:32:00,
2013-03-20 04:03:00,17.0,4.0,-100.00,SW,221,1.0,4.0,56,0.00,,,0.00,0.000000,,2013-03-20 10:03:00,
2013-03-20 04:12:00,17.0,4.0,-100.00,SW,221,1.0,4.0,56,0.00,,,0.00,0.000000,,2013-03-20 10:12:00,
2013-03-20 04:22:00,17.0,4.0,-100.00,SW,221,1.0,4.0,56,0.00,,,0.00,0.000000,,2013-03-20 10:22:00,
2013-03-20 04:32:00,17.0,4.0,-100.00,SW,221,1.0,4.0,56,0.00,,,0.00,0.000000,,2013-03-20 10:32:00,
2013-03-20 05:02:00,16.0,4.0,-100.00,West,273,1.0,3.0,58,0.00,,,0.00,0.000000,,2013-03-20 11:02:00,
2013-03-20 05:12:00,16.0,4.0,-100.00,West,273,1.0,3.0,58,0.00,,,0.00,0.000000,,2013-03-20 11:12:00,
2013-03-20 05:22:00,16.0,4.0,-100.00,West,273,1.0,3.0,58,0.00,,,0.00,0.000000,,2013-03-20 11:22:00,
2013-03-20 05:32:00,16.0,4.0,-100.00,West,273,1.0,3.0,58,0.00,,,0.00,0.000000,,2013-03-20 11:32:00,
2013-03-20 06:02:00,18.0,4.0,-100.00,South,186,1.0,3.0,54,0.00,,,0.00,0.000000,,2013-03-20 12:02:00,
2013-03-20 06:12:00,18.0,4.0,-100.00,South,186,1.0,3.0,54,0.00,,,0.00,0.000000,,2013-03-20 12:12:00,
2013-03-20 06:22:00,18.0,4.0,-100.00,South,186,1.0,3.0,54,0.00,,,0.00,0.000000,,2013-03-20 12:22:00,
2013-03-20 06:32:00,18.0,4.0,-100.00,South,186,1.0,3.0,54,0.00,,,0.00,0.000000,,2013-03-20 12:32:00,
2013-03-20 07:02:00,19.0,5.0,-100.00,NNW,348,1.0,4.0,53,0.00,,,0.00,0.000000,,2013-03-20 13:02:00,
2013-03-20 07:12:00,19.0,5.0,-100.00,NNW,348,1.0,4.0,53,0.00,,,0.00,0.000000,,2013-03-20 13:12:00,
2013-03-20 07:22:00,19.0,5.0,-100.00,NNW,348,1.0,4.0,53,0.00,,,0.00,0.000000,,2013-03-20 13:22:00,
2013-03-20 07:32:00,19.0,5.0,-100.00,NNW,348,1.0,4.0,53,0.00,,,0.00,0.000000,,2013-03-20 13:32:00,
2013-03-20 08:02:00,20.0,7.0,-100.00,NNE,33,3.0,6.0,57,0.00,,,0.00,0.000000,,2013-03-20 14:02:00,
2013-03-20 08:12:00,20.0,7.0,-100.00,NNE,33,3.0,6.0,57,0.00,,,0.00,0.000000,,2013-03-20 14:12:00,
2013-03-20 08:22:00,20.0,7.0,-100.00,NNE,33,3.0,6.0,57,0.00,,,0.00,0.000000,,2013-03-20 14:22:00,
2013-03-20 08:32:00,20.0,7.0,-100.00,NNE,33,3.0,6.0,57,0.00,,,0.00,0.000000,,2013-03-20 14:32:00,
2013-03-20 09:02:00,20.0,11.0,-100.00,NNW,333,1.0,5.0,68,0.00,,,0.00,12.000000,,2013-03-20 15:02:00,
2013-03-20 09:12:00,20.0,11.0,-100.00,NNW,333,1.0,5.0,68,0.00,,,0.00,12.000000,,2013-03-20 15:12:00,
2013-03-20 09:22:00,20.0,11.0,-100.00,NNW,333,1.0,5.0,68,0.00,,,0.00,12.000000,,2013-03-20 15:22:00,
2013-03-20 09:33:00,20.0,11.0,-100.00,NNW,333,1.0,5.0,68,0.00,,,0.00,12.000000,,2013-03-20 15:33:00,
2013-03-20 10:03:00,22.0,17.0,-100.00,West,268,0.0,3.0,82,0.01,,,0.01,37.000000,,2013-03-20 16:03:00,
2013-03-20 10:12:00,22.0,17.0,-100.00,West,268,0.0,3.0,82,0.01,,,0.01,37.000000,,2013-03-20 16:12:00,
2013-03-20 10:23:00,22.0,17.0,-100.00,West,268,0.0,3.0,82,0.01,,,0.01,37.000000,,2013-03-20 16:23:00,
2013-03-20 10:32:00,22.0,17.0,-100.00,West,268,0.0,3.0,82,0.01,,,0.01,37.000000,,2013-03-20 16:32:00,
2013-03-20 11:03:00,25.0,20.0,-100.00,NNE,22,1.0,2.0,81,0.04,,,0.05,40.000000,,2013-03-20 17:03:00,
2013-03-20 11:12:00,25.0,20.0,-100.00,NNE,22,1.0,2.0,81,0.04,,,0.05,40.000000,,2013-03-20 17:12:00,
2013-03-20 11:22:00,25.0,20.0,-100.00,NNE,22,1.0,2.0,81,0.04,,,0.05,40.000000,,2013-03-20 17:22:00,
2013-03-20 11:32:00,25.0,20.0,-100.00,NNE,22,1.0,2.0,81,0.04,,,0.05,40.000000,,2013-03-20 17:32:00,
2013-03-20 12:02:00,31.0,25.0,-100.00,East,85,0.0,3.0,78,0.01,,,0.06,64.000000,,2013-03-20 18:02:00,
2013-03-20 12:12:00,31.0,25.0,-100.00,East,85,0.0,3.0,78,0.01,,,0.06,64.000000,,2013-03-20 18:12:00,
2013-03-20 12:22:00,31.0,25.0,-100.00,East,85,0.0,3.0,78,0.01,,,0.06,64.000000,,2013-03-20 18:22:00,
2013-03-20 12:32:00,31.0,25.0,-100.00,East,85,0.0,3.0,78,0.01,,,0.06,64.000000,,2013-03-20 18:32:00,
2013-03-20 13:02:00,34.0,27.0,-100.00,SE,134,1.0,3.0,75,0.02,,,0.08,133.000000,,2013-03-20 19:02:00,
2013-03-20 13:12:00,34.0,27.0,-100.00,SE,134,1.0,3.0,75,0.02,,,0.08,133.000000,,2013-03-20 19:12:00,
2013-03-20 13:22:00,34.0,27.0,-100.00,SE,134,1.0,3.0,75,0.02,,,0.08,133.000000,,2013-03-20 19:22:00,
2013-03-20 13:32:00,34.0,27.0,-100.00,SE,134,1.0,3.0,75,0.02,,,0.08,133.000000,,2013-03-20 19:32:00,
2013-03-20 14:02:00,36.0,29.0,-100.00,SSW,204,3.0,5.0,74,0.01,,,0.09,203.000000,,2013-03-20 20:02:00,
2013-03-20 14:12:00,36.0,29.0,-100.00,SSW,204,3.0,5.0,74,0.01,,,0.09,203.000000,,2013-03-20 20:12:00,
2013-03-20 14:22:00,36.0,29.0,-100.00,SSW,204,3.0,5.0,74,0.01,,,0.09,203.000000,,2013-03-20 20:22:00,
2013-03-20 14:32:00,36.0,29.0,-100.00,SSW,204,3.0,5.0,74,0.01,,,0.09,203.000000,,2013-03-20 20:32:00,
2013-03-20 15:02:00,41.0,30.0,-100.00,SW,219,6.0,11.0,64,0.00,,,0.09,413.000000,,2013-03-20 21:02:00,
2013-03-20 15:12:00,41.0,30.0,-100.00,SW,219,6.0,11.0,64,0.00,,,0.09,413.000000,,2013-03-20 21:12:00,
2013-03-20 15:22:00,41.0,30.0,-100.00,SW,219,6.0,11.0,64,0.00,,,0.09,413.000000,,2013-03-20 21:22:00,
2013-03-20 15:33:00,41.0,30.0,-100.00,SW,219,6.0,11.0,64,0.00,,,0.09,413.000000,,2013-03-20 21:33:00,
2013-03-20 16:03:00,39.0,29.0,-100.00,SW,215,7.0,15.0,68,0.00,,,0.09,581.000000,,2013-03-20 22:03:00,
2013-03-20 16:12:00,39.0,29.0,-100.00,SW,215,7.0,15.0,68,0.00,,,0.09,581.000000,,2013-03-20 22:12:00,
2013-03-20 16:23:00,39.0,29.0,-100.00,SW,215,7.0,15.0,68,0.00,,,0.09,581.000000,,2013-03-20 22:23:00,
2013-03-20 16:32:00,39.0,29.0,-100.00,SW,215,7.0,15.0,68,0.00,,,0.09,581.000000,,2013-03-20 22:32:00,
2013-03-20 17:02:00,38.0,30.0,-100.00,SW,222,5.0,16.0,74,0.00,,,0.09,350.000000,,2013-03-20 23:02:00,
2013-03-20 17:12:00,38.0,30.0,-100.00,SW,222,5.0,16.0,74,0.00,,,0.09,350.000000,,2013-03-20 23:12:00,
2013-03-20 17:22:00,38.0,30.0,-100.00,SW,222,5.0,16.0,74,0.00,,,0.09,350.000000,,2013-03-20 23:22:00,
2013-03-20 17:32:00,38.0,30.0,-100.00,SW,222,5.0,16.0,74,0.00,,,0.09,350.000000,,2013-03-20 23:32:00,
2013-03-20 18:02:00,37.0,28.0,-100.00,SW,221,6.0,14.0,71,0.00,,,0.09,266.000000,,2013-03-21 00:02:00,
2013-03-20 18:12:00,37.0,28.0,-100.00,SW,221,6.0,14.0,71,0.00,,,0.09,266.000000,,2013-03-21 00:12:00,
2013-03-20 18:22:00,37.0,28.0,-100.00,SW,221,6.0,14.0,71,0.00,,,0.09,266.000000,,2013-03-21 00:22:00,
2013-03-20 18:32:00,37.0,28.0,-100.00,SW,221,6.0,14.0,71,0.00,,,0.09,266.000000,,2013-03-21 00:32:00,
2013-03-20 19:02:00,34.0,31.0,-100.00,SSW,208,1.0,13.0,87,0.00,,,0.09,78.000000,,2013-03-21 01:02:00,
2013-03-20 19:12:00,34.0,31.0,-100.00,SSW,208,1.0,13.0,87,0.00,,,0.09,78.000000,,2013-03-21 01:12:00,
2013-03-20 19:22:00,34.0,31.0,-100.00,SSW,208,1.0,13.0,87,0.00,,,0.09,78.000000,,2013-03-21 01:22:00,
2013-03-20 19:32:00,34.0,31.0,-100.00,SSW,208,1.0,13.0,87,0.00,,,0.09,78.000000,,2013-03-21 01:32:00,
2013-03-20 20:02:00,34.0,32.0,-100.00,SW,232,3.0,10.0,91,0.00,,,0.09,5.000000,,2013-03-21 02:02:00,
2013-03-20 20:12:00,34.0,32.0,-100.00,SW,232,3.0,10.0,91,0.00,,,0.09,5.000000,,2013-03-21 02:12:00,
2013-03-20 20:22:00,34.0,32.0,-100.00,SW,232,3.0,10.0,91,0.00,,,0.09,5.000000,,2013-03-21 02:22:00,
2013-03-20 20:32:00,34.0,32.0,-100.00,SW,232,3.0,10.0,91,0.00,,,0.09,5.000000,,2013-03-21 02:32:00,
2013-03-20 21:02:00,33.0,31.0,-100.00,SW,225,2.0,11.0,92,0.02,,,0.11,0.000000,,2013-03-21 03:02:00,
2013-03-20 21:12:00,33.0,31.0,-100.00,SW,225,2.0,11.0,92,0.02,,,0.11,0.000000,,2013-03-21 03:12:00,
2013-03-20 21:22:00,33.0,31.0,-100.00,SW,225,2.0,11.0,92,0.02,,,0.11,0.000000,,2013-03-21 03:22:00,
2013-03-20 21:32:00,33.0,31.0,-100.00,SW,225,2.0,11.0,92,0.02,,,0.11,0.000000,,2013-03-21 03:32:00,
2013-03-20 22:02:00,33.0,31.0,-100.00,SW,220,2.0,12.0,93,0.01,,,0.12,0.000000,,2013-03-21 04:02:00,
2013-03-20 22:12:00,33.0,31.0,-100.00,SW,220,2.0,12.0,93,0.01,,,0.12,0.000000,,2013-03-21 04:12:00,
2013-03-20 22:22:00,33.0,31.0,-100.00,SW,220,2.0,12.0,93,0.01,,,0.12,0.000000,,2013-03-21 04:22:00,
2013-03-20 22:32:00,33.0,31.0,-100.00,SW,220,2.0,12.0,93,0.01,,,0.12,0.000000,,2013-03-21 04:32:00,
2013-03-20 23:02:00,33.0,31.0,-100.00,SW,216,2.0,7.0,94,0.01,,,0.13,0.000000,,2013-03-21 05:02:00,
2013-03-20 23:12:00,33.0,31.0,-100.00,SW,216,2.0,7.0,94,0.01,,,0.13,0.000000,,2013-03-21 05:12:00,
2013-03-20 23:22:00,33.0,31.0,-100.00,SW,216,2.0,7.0,94,0.01,,,0.13,0.000000,,2013-03-21 05:22:00,
2013-03-20 23:32:00,33.0,31.0,-100.00,SW,216,2.0,7.0,94,0.01,,,0.13,0.000000,,2013-03-21 05:32:00,